Time;durP1;ratioP1;P1;durP2;ratioP2;P2;SDS_P1;SDS_P2;PMS_P1;PMS_P2;Temp;Humidity;BMP_temperature;BMP_pressure;BME280_temperature;BME280_humidity;BME280_pressure;Samples;Min_cycle;Max_cycle;Signal;HPM_P1;HPM_P2
2023/06/03 00:01:07;;;;;;;;;;;;;;;28.30;26.31;101092.31;5061512;28;19928;-72
2023/06/03 00:03:36;;;;;;;;;;;;;;;28.27;26.15;101088.94;5062133;28;19924;-71
2023/06/03 00:06:04;;;;;;;;;;;;;;;28.19;26.89;101095.38;5064630;28;19961;-72
2023/06/03 00:08:32;;;;;;;;;;;;;;;28.20;26.72;101089.16;5068165;28;20610;-71
2023/06/03 00:11:00;;;;;;;;;;;;;;;28.22;27.13;101097.06;5067775;28;20479;-72
2023/06/03 00:13:29;;;;;;;;;;;;;;;28.19;26.79;101094.53;5069417;27;19920;-72
2023/06/03 00:15:57;;;;;;;;;;;;;;;28.12;26.92;101093.03;5065264;28;19924;-72
2023/06/03 00:18:26;;;;;;;;;;;;;;;28.13;26.78;101092.97;5067666;28;19979;-72
2023/06/03 00:20:55;;;;;;;;;;;;;;;28.10;27.85;101081.56;5065610;28;19924;-74
2023/06/03 00:23:24;;;;;;;;;;;;;;;28.10;26.82;101081.56;5064619;28;19959;-72
2023/06/03 00:25:52;;;;;;;;;;;;;;;28.04;26.87;101088.00;5062153;28;19956;-73
2023/06/03 00:28:19;;;;;;;;;;;;;;;28.04;26.87;101090.66;5062543;28;20299;-72
2023/06/03 00:30:49;;;;;;;;;;;;;;;27.94;26.41;101083.94;5057528;28;19924;-71
2023/06/03 00:33:16;;;;;;;;;;;;;;;27.85;26.67;101084.28;5067972;28;19986;-72
2023/06/03 00:35:46;;;;;;;;;;;;;;;27.80;26.76;101079.13;5064466;28;19925;-70
2023/06/03 00:38:13;;;;;;;;;;;;;;;27.52;27.23;101074.81;5064777;28;19981;-72
2023/06/03 00:40:41;;;;;;;;;;;;;;;27.46;27.30;101071.50;5069607;28;19970;-72
2023/06/03 00:43:09;;;;;;;;;;;;;;;27.46;27.46;101072.38;5060486;28;19925;-73
2023/06/03 00:45:37;;;;;;;;;;;;;;;27.40;27.26;101066.41;5072714;28;19928;-73
2023/06/03 00:48:07;;;;;;;;;;;;;;;27.39;28.13;101070.00;5064681;28;19959;-73
2023/06/03 00:50:35;;;;;;;;;;;;;;;27.46;27.52;101066.19;5064893;28;19932;-73
2023/06/03 00:53:04;;;;;;;;;;;;;;;27.51;27.43;101070.44;5061926;28;20006;-71
2023/06/03 00:55:32;;;;;;;;;;;;;;;27.53;27.11;101070.34;5063551;28;19935;-73
2023/06/03 00:58:00;;;;;;;;;;;;;;;27.43;27.23;101072.47;5065359;28;20016;-72
2023/06/03 01:00:30;;;;;;;;;;;;;;;27.38;27.26;101068.28;5064442;28;19924;-72
2023/06/03 01:03:01;;;;;;;;;;;;;;;27.39;27.56;101059.38;5060867;28;20043;-75
2023/06/03 01:05:30;;;;;;;;;;;;;;;27.36;27.49;101061.19;5063032;28;20452;-72
2023/06/03 01:08:03;;;;;;;;;;;;;;;27.28;27.22;101068.59;5071755;28;19920;-72
2023/06/03 01:10:37;;;;;;;;;;;;;;;27.25;27.59;101075.78;5063200;28;19986;-72
2023/06/03 01:13:05;;;;;;;;;;;;;;;27.28;27.92;101067.69;5063431;27;20478;-72
2023/06/03 01:15:36;;;;;;;;;;;;;;;27.28;27.79;101073.91;5041641;28;19925;-72
2023/06/03 01:18:05;;;;;;;;;;;;;;;27.21;27.06;101060.88;5043173;28;19928;-73
2023/06/03 01:20:36;;;;;;;;;;;;;;;27.13;27.29;101063.78;5045393;28;19929;-73
2023/06/03 01:23:14;;;;;;;;;;;;;;;27.15;27.45;101061.94;5043221;28;20503;-73
2023/06/03 01:25:42;;;;;;;;;;;;;;;27.18;28.07;101069.78;5043675;28;20002;-73
2023/06/03 01:28:09;;;;;;;;;;;;;;;27.09;27.36;101067.44;5044522;28;20401;-72
2023/06/03 01:30:41;;;;;;;;;;;;;;;26.90;27.33;101065.41;5044701;28;19934;-72
2023/06/03 01:33:09;;;;;;;;;;;;;;;26.83;27.39;101076.31;5045183;28;19920;-72
2023/06/03 01:35:37;;;;;;;;;;;;;;;26.79;28.63;101059.59;5049291;28;19983;-72
2023/06/03 01:38:05;;;;;;;;;;;;;;;26.78;28.00;101068.50;5043145;28;19928;-71
2023/06/03 01:40:35;;;;;;;;;;;;;;;26.78;27.99;101073.81;5041467;28;20397;-72
2023/06/03 01:43:03;;;;;;;;;;;;;;;26.76;29.54;101072.97;5041688;28;19921;-72
2023/06/03 01:45:31;;;;;;;;;;;;;;;26.73;28.89;101071.31;5044642;28;20306;-72
2023/06/03 01:47:58;;;;;;;;;;;;;;;26.75;28.70;101076.53;5044741;28;19925;-73
2023/06/03 01:50:26;;;;;;;;;;;;;;;26.70;29.69;101070.53;5043753;28;19932;-73
2023/06/03 01:52:55;;;;;;;;;;;;;;;26.69;28.81;101079.41;5042939;28;20087;-72
2023/06/03 01:55:23;;;;;;;;;;;;;;;26.62;27.61;101075.19;5043814;28;19990;-73
2023/06/03 01:57:52;;;;;;;;;;;;;;;26.46;28.40;101073.03;5043550;28;19928;-72
2023/06/03 02:00:20;;;;;;;;;;;;;;;26.44;28.94;101069.53;5041671;28;19953;-73
2023/06/03 02:02:48;;;;;;;;;;;;;;;26.35;30.13;101074.28;5042429;28;19925;-73
2023/06/03 02:05:16;;;;;;;;;;;;;;;26.10;29.17;101067.06;5046318;28;20378;-74
2023/06/03 02:07:44;;;;;;;;;;;;;;;26.04;29.87;101081.34;5041662;28;19983;-72
2023/06/03 02:10:11;;;;;;;;;;;;;;;25.95;31.26;101071.03;5042555;28;19933;-73
2023/06/03 02:12:39;;;;;;;;;;;;;;;25.86;32.29;101081.88;5041288;28;19943;-72
2023/06/03 02:15:09;;;;;;;;;;;;;;;25.76;30.64;101072.44;5042834;28;19933;-71
2023/06/03 02:17:37;;;;;;;;;;;;;;;25.69;32.72;101079.72;5045131;28;20302;-72
2023/06/03 02:20:05;;;;;;;;;;;;;;;25.55;32.50;101088.03;5041410;28;20428;-72
2023/06/03 02:22:33;;;;;;;;;;;;;;;25.38;29.41;101087.63;5050289;28;20622;-71
2023/06/03 02:25:01;;;;;;;;;;;;;;;25.26;28.02;101092.31;5042766;28;19963;-70
2023/06/03 02:27:29;;;;;;;;;;;;;;;25.15;27.61;101086.44;5025383;28;20121;-71
2023/06/03 02:29:57;;;;;;;;;;;;;;;25.11;27.41;101092.72;5042586;28;19925;-71
2023/06/03 02:32:26;;;;;;;;;;;;;;;25.05;27.27;101092.84;5037942;28;20032;-70
2023/06/03 02:34:54;;;;;;;;;;;;;;;24.86;27.56;101101.25;5041586;28;19936;-71
2023/06/03 02:37:27;;;;;;;;;;;;;;;24.77;26.92;101100.63;5049524;28;19928;-69
2023/06/03 02:39:55;;;;;;;;;;;;;;;24.69;27.87;101106.06;5046713;28;19921;-69
2023/06/03 02:42:23;;;;;;;;;;;;;;;24.63;26.88;101117.69;5048925;28;20039;-70
2023/06/03 02:44:51;;;;;;;;;;;;;;;24.59;27.23;101115.13;5041555;28;20015;-70
2023/06/03 02:47:19;;;;;;;;;;;;;;;24.53;27.44;101121.41;5047847;28;19949;-68
2023/06/03 02:49:51;;;;;;;;;;;;;;;24.46;27.50;101125.97;5045648;28;19991;-71
2023/06/03 02:52:18;;;;;;;;;;;;;;;24.41;27.63;101127.81;5044778;28;20007;-71
2023/06/03 02:54:46;;;;;;;;;;;;;;;24.34;27.92;101142.09;5046184;28;19932;-71
2023/06/03 02:57:14;;;;;;;;;;;;;;;24.25;27.83;101139.66;5045612;28;19982;-71
2023/06/03 02:59:42;;;;;;;;;;;;;;;24.12;28.02;101143.44;5039790;28;20425;-70
2023/06/03 03:02:12;;;;;;;;;;;;;;;23.95;28.50;101139.38;5042928;28;20717;-71
2023/06/03 03:04:42;;;;;;;;;;;;;;;23.87;28.74;101138.69;5043202;28;19975;-70
2023/06/03 03:07:26;;;;;;;;;;;;;;;23.81;28.99;101130.84;5043291;28;20455;-70
2023/06/03 03:09:54;;;;;;;;;;;;;;;23.78;28.69;101130.94;5042508;28;19924;-70
2023/06/03 03:12:22;;;;;;;;;;;;;;;23.75;29.40;101137.09;5041876;28;20341;-70
2023/06/03 03:14:56;;;;;;;;;;;;;;;23.71;31.33;101138.06;5044143;27;19924;-71
2023/06/03 03:17:24;;;;;;;;;;;;;;;23.56;29.97;101133.91;5044396;28;19929;-69
2023/06/03 03:19:53;;;;;;;;;;;;;;;23.46;32.23;101145.56;5039672;28;19929;-71
2023/06/03 03:22:23;;;;;;;;;;;;;;;23.36;32.13;101146.59;5039692;28;19925;-71
2023/06/03 03:24:51;;;;;;;;;;;;;;;23.21;31.35;101145.97;5043031;28;19921;-71
2023/06/03 03:27:20;;;;;;;;;;;;;;;23.14;31.30;101149.63;5039758;28;19939;-71
2023/06/03 03:29:50;;;;;;;;;;;;;;;23.10;32.37;101152.31;5044968;28;19924;-71
2023/06/03 03:32:19;;;;;;;;;;;;;;;23.01;33.14;101148.06;5043334;28;19928;-71
2023/06/03 03:34:49;;;;;;;;;;;;;;;22.85;32.54;101142.13;5044316;28;19936;-71
2023/06/03 03:37:17;;;;;;;;;;;;;;;22.83;32.31;101156.22;5047470;28;19951;-71
2023/06/03 03:39:46;;;;;;;;;;;;;;;22.66;32.21;101167.91;5040249;28;20015;-71
2023/06/03 03:42:16;;;;;;;;;;;;;;;22.54;33.54;101174.22;5039657;28;19928;-71
2023/06/03 03:44:44;;;;;;;;;;;;;;;22.42;34.14;101176.13;5043787;28;20022;-72
2023/06/03 03:47:18;;;;;;;;;;;;;;;22.29;35.50;101178.06;5040740;28;19932;-69
2023/06/03 03:49:46;;;;;;;;;;;;;;;22.17;35.27;101181.66;5039413;28;20440;-70
2023/06/03 03:52:15;;;;;;;;;;;;;;;22.09;36.31;101184.41;5035536;28;19928;-69
2023/06/03 03:54:46;;;;;;;;;;;;;;;21.97;34.31;101189.81;5043116;28;20505;-70
2023/06/03 03:57:16;;;;;;;;;;;;;;;21.93;34.68;101188.97;5047113;28;20506;-70
2023/06/03 03:59:44;;;;;;;;;;;;;;;21.89;34.33;101194.28;5043151;28;19967;-70
2023/06/03 04:02:12;;;;;;;;;;;;;;;21.83;34.59;101194.31;5040761;28;19927;-72
2023/06/03 04:04:42;;;;;;;;;;;;;;;21.77;34.45;101192.66;5041232;28;19936;-70
2023/06/03 04:07:17;;;;;;;;;;;;;;;21.70;34.36;101197.09;5034550;28;19928;-71
2023/06/03 04:09:46;;;;;;;;;;;;;;;21.63;34.54;101197.19;5040610;28;20283;-70
2023/06/03 04:12:29;;;;;;;;;;;;;;;21.55;36.09;101215.66;5042379;28;19932;-71
2023/06/03 04:15:04;;;;;;;;;;;;;;;21.42;36.57;101214.91;5047530;27;19927;-71
2023/06/03 04:17:32;;;;;;;;;;;;;;;21.31;35.55;101217.56;5048497;28;19936;-70
2023/06/03 04:20:02;;;;;;;;;;;;;;;21.22;34.43;101220.28;5041861;28;19924;-71
2023/06/03 04:22:31;;;;;;;;;;;;;;;21.17;34.53;101226.47;5047097;28;19932;-71
2023/06/03 04:24:59;;;;;;;;;;;;;;;21.13;33.98;101230.88;5040350;28;20025;-71
2023/06/03 04:27:29;;;;;;;;;;;;;;;21.04;34.47;101228.28;5043381;28;19971;-71
2023/06/03 04:29:57;;;;;;;;;;;;;;;20.98;33.46;101228.31;5042889;28;19986;-70
2023/06/03 04:32:26;;;;;;;;;;;;;;;20.86;35.66;101234.53;5045437;28;19921;-70
2023/06/03 04:34:54;;;;;;;;;;;;;;;20.78;34.23;101231.09;5037961;28;19929;-72
2023/06/03 04:37:23;;;;;;;;;;;;;;;20.69;33.29;101239.88;5044977;28;20070;-70
2023/06/03 04:39:51;;;;;;;;;;;;;;;20.61;33.69;101234.63;5042291;28;19932;-71
2023/06/03 04:42:18;;;;;;;;;;;;;;;20.54;36.29;101238.16;5041472;28;19976;-71
2023/06/03 04:44:48;;;;;;;;;;;;;;;20.42;33.97;101241.69;5041651;28;19929;-71
2023/06/03 04:47:17;;;;;;;;;;;;;;;20.30;34.20;101240.00;5037376;28;19925;-70
2023/06/03 04:49:47;;;;;;;;;;;;;;;20.30;33.82;101245.25;5039983;28;19925;-70
2023/06/03 04:52:15;;;;;;;;;;;;;;;20.25;34.29;101240.91;5042065;28;20015;-71
2023/06/03 04:54:43;;;;;;;;;;;;;;;20.19;35.53;101241.78;5045303;28;20835;-72
2023/06/03 04:57:11;;;;;;;;;;;;;;;20.14;36.34;101251.41;5049974;28;20030;-70
2023/06/03 04:59:43;;;;;;;;;;;;;;;20.07;35.16;101254.94;5046492;28;20719;-71
2023/06/03 05:02:16;;;;;;;;;;;;;;;19.99;35.82;101269.81;5046699;28;19921;-71
2023/06/03 05:04:44;;;;;;;;;;;;;;;19.90;35.39;101254.94;5049306;28;20012;-70
2023/06/03 05:07:12;;;;;;;;;;;;;;;19.84;35.49;101261.09;5051143;28;19931;-74
2023/06/03 05:09:40;;;;;;;;;;;;;;;19.79;35.20;101268.09;5047667;28;20408;-72
2023/06/03 05:12:09;;;;;;;;;;;;;;;19.73;36.60;101261.97;5044163;28;19932;-71
2023/06/03 05:14:37;;;;;;;;;;;;;;;19.63;35.90;101269.81;5047753;27;19920;-70
2023/06/03 05:17:05;;;;;;;;;;;;;;;19.58;35.00;101262.81;5045689;28;19931;-70
2023/06/03 05:19:34;;;;;;;;;;;;;;;19.53;33.78;101269.81;5047643;28;20050;-72
2023/06/03 05:22:03;;;;;;;;;;;;;;;19.50;33.15;101275.94;5040364;28;19974;-72
2023/06/03 05:24:31;;;;;;;;;;;;;;;19.48;33.79;101276.81;5047041;28;20064;-69
2023/06/03 05:26:59;;;;;;;;;;;;;;;19.48;34.22;101282.06;5044963;28;19920;-72
2023/06/03 05:29:26;;;;;;;;;;;;;;;19.43;35.11;101280.28;5043625;28;19924;-71
2023/06/03 05:31:54;;;;;;;;;;;;;;;19.37;35.33;101285.53;5042361;28;19929;-72
2023/06/03 05:34:22;;;;;;;;;;;;;;;19.32;35.58;101282.03;5041439;28;20408;-72
2023/06/03 05:36:52;;;;;;;;;;;;;;;19.25;35.75;101285.50;5044272;28;20401;-72
2023/06/03 05:39:20;;;;;;;;;;;;;;;19.20;36.27;101287.25;5044130;28;19925;-72
2023/06/03 05:41:54;;;;;;;;;;;;;;;19.16;36.88;101295.97;5042650;28;19920;-71
2023/06/03 05:44:22;;;;;;;;;;;;;;;19.08;37.15;101289.81;5044552;28;20333;-72
2023/06/03 05:46:53;;;;;;;;;;;;;;;19.00;37.02;101293.31;5044689;28;20433;-72
2023/06/03 05:49:21;;;;;;;;;;;;;;;18.94;38.35;101295.91;5043060;28;19920;-71
2023/06/03 05:51:49;;;;;;;;;;;;;;;18.88;38.03;101295.91;5041310;28;20492;-71
2023/06/03 05:54:18;;;;;;;;;;;;;;;18.81;38.60;101291.50;5038824;28;19928;-71
2023/06/03 05:56:46;;;;;;;;;;;;;;;18.74;38.82;101298.44;5042245;28;20432;-71
2023/06/03 05:59:18;;;;;;;;;;;;;;;18.68;38.34;101295.75;5036861;28;19979;-71
2023/06/03 06:01:46;;;;;;;;;;;;;;;18.57;38.45;101295.69;5041679;28;19932;-72
2023/06/03 06:04:14;;;;;;;;;;;;;;;18.50;39.39;101304.41;5043689;28;19929;-72
2023/06/03 06:06:42;;;;;;;;;;;;;;;18.38;39.55;101314.81;5045710;28;19924;-72
2023/06/03 06:09:13;;;;;;;;;;;;;;;18.27;41.54;101316.50;5044434;28;19979;-71
2023/06/03 06:11:45;;;;;;;;;;;;;;;18.19;41.51;101324.31;5041855;28;20007;-72
2023/06/03 06:14:12;;;;;;;;;;;;;;;18.11;42.47;101321.63;5056398;27;19921;-72
2023/06/03 06:16:40;;;;;;;;;;;;;;;18.05;41.19;101318.97;5066800;28;19923;-71
2023/06/03 06:19:08;;;;;;;;;;;;;;;17.95;41.38;101328.47;5061201;28;19924;-71
2023/06/03 06:21:36;;;;;;;;;;;;;;;17.86;41.83;101335.38;5066082;28;20385;-72
2023/06/03 06:24:05;;;;;;;;;;;;;;;17.69;42.43;101337.81;5065584;28;19982;-70
2023/06/03 06:26:33;;;;;;;;;;;;;;;17.57;43.14;101343.81;5057859;28;19935;-71
2023/06/03 06:29:02;;;;;;;;;;;;;;;17.51;44.27;101351.59;5062235;28;19935;-71
2023/06/03 06:31:33;;;;;;;;;;;;;;;17.41;44.85;101357.56;5061188;28;19924;-73
2023/06/03 06:34:01;;;;;;;;;;;;;;;17.18;45.41;101355.59;5060628;28;19927;-70
2023/06/03 06:36:43;;;;;;;;;;;;;;;16.93;45.39;101351.78;5060593;28;19981;-69
2023/06/03 06:39:36;;;;;;;;;;;;;;;16.79;45.81;101356.84;5063439;28;20355;-71
2023/06/03 06:42:09;;;;;;;;;;;;;;;16.67;46.02;101356.63;5060218;28;19920;-71
2023/06/03 06:44:44;;;;;;;;;;;;;;;16.60;46.21;101353.03;5064712;28;20694;-72
2023/06/03 06:47:12;;;;;;;;;;;;;;;16.52;47.31;101350.31;5057033;28;19928;-72
2023/06/03 06:49:40;;;;;;;;;;;;;;;16.42;47.84;101351.03;5065802;28;20421;-72
2023/06/03 06:52:12;;;;;;;;;;;;;;;16.32;47.82;101351.75;5063330;28;20373;-72
2023/06/03 06:54:42;;;;;;;;;;;;;;;16.19;48.30;101348.06;5061062;28;20336;-72
2023/06/03 06:57:10;;;;;;;;;;;;;;;16.09;48.90;101349.66;5065032;28;19932;-72
2023/06/03 06:59:39;;;;;;;;;;;;;;;16.02;49.65;101350.41;5064663;28;19967;-72
2023/06/03 07:02:07;;;;;;;;;;;;;;;15.95;50.18;101359.00;5063089;28;19931;-72
2023/06/03 07:04:35;;;;;;;;;;;;;;;15.88;51.08;101362.34;5065366;28;19936;-72
2023/06/03 07:07:03;;;;;;;;;;;;;;;15.68;50.67;101360.22;5057819;28;19920;-73
2023/06/03 07:09:30;;;;;;;;;;;;;;;15.58;50.80;101371.34;5065692;28;19948;-72
2023/06/03 07:11:58;;;;;;;;;;;;;;;15.53;51.38;101366.88;5062493;28;19924;-72
2023/06/03 07:14:30;;;;;;;;;;;;;;;15.46;51.87;101368.50;5051880;28;20403;-72
2023/06/03 07:16:59;;;;;;;;;;;;;;;15.43;52.42;101373.66;5041594;28;20205;-71
2023/06/03 07:19:31;;;;;;;;;;;;;;;15.37;52.38;101370.91;5042122;28;19924;-71
2023/06/03 07:22:01;;;;;;;;;;;;;;;15.26;52.62;101376.81;5039169;28;19925;-72
2023/06/03 07:24:29;;;;;;;;;;;;;;;15.17;53.07;101381.84;5041793;28;19920;-71
2023/06/03 07:26:57;;;;;;;;;;;;;;;15.09;53.18;101378.19;5043566;28;20318;-73
2023/06/03 07:29:25;;;;;;;;;;;;;;;15.02;53.85;101378.91;5044224;28;19924;-71
2023/06/03 07:31:53;;;;;;;;;;;;;;;14.95;53.99;101370.06;5043816;28;19932;-72
2023/06/03 07:34:26;;;;;;;;;;;;;;;14.98;54.10;101388.41;5037529;28;19956;-71
2023/06/03 07:36:57;;;;;;;;;;;;;;;14.98;53.88;101379.69;5040314;28;19925;-71
2023/06/03 07:39:25;;;;;;;;;;;;;;;14.91;54.52;101377.78;5042834;28;20376;-71
2023/06/03 07:41:53;;;;;;;;;;;;;;;14.80;55.02;101381.06;5039179;28;19937;-71
2023/06/03 07:44:27;;;;;;;;;;;;;;;14.73;55.52;101376.56;5034313;28;19925;-72
2023/06/03 07:46:56;;;;;;;;;;;;;;;14.66;55.72;101380.75;5040674;28;20014;-71
2023/06/03 07:49:26;;;;;;;;;;;;;;;14.62;55.82;101373.72;5042593;28;19956;-72
2023/06/03 07:51:54;;;;;;;;;;;;;;;14.46;56.74;101377.66;5040818;28;19928;-72
2023/06/03 07:54:22;;;;;;;;;;;;;;;14.39;57.43;101369.66;5042167;28;19932;-71
2023/06/03 07:56:50;;;;;;;;;;;;;;;14.28;58.62;101376.34;5041615;28;20395;-71
2023/06/03 07:59:20;;;;;;;;;;;;;;;14.23;58.50;101366.69;5044653;28;20861;-71
2023/06/03 08:01:50;;;;;;;;;;;;;;;14.23;58.83;101361.47;5042891;28;20176;-71
2023/06/03 08:04:34;;;;;;;;;;;;;;;14.20;58.35;101358.81;5043828;28;19924;-71
2023/06/03 08:07:02;;;;;;;;;;;;;;;14.18;57.95;101367.44;5042414;28;19994;-71
2023/06/03 08:09:31;;;;;;;;;;;;;;;14.15;56.99;101362.13;5040727;28;19925;-72
2023/06/03 08:11:59;;;;;;;;;;;;;;;14.14;56.65;101365.59;5041465;28;19983;-72
2023/06/03 08:14:27;;;;;;;;;;;;;;;14.13;56.00;101369.00;5040738;28;19925;-72
2023/06/03 08:16:56;;;;;;;;;;;;;;;14.11;56.31;101369.00;5048450;28;20123;-72
2023/06/03 08:19:25;;;;;;;;;;;;;;;14.05;57.01;101368.84;5043199;28;19971;-73
2023/06/03 08:21:54;;;;;;;;;;;;;;;13.98;57.61;101377.34;5046572;28;19928;-72
2023/06/03 08:24:22;;;;;;;;;;;;;;;13.93;57.37;101377.22;5036951;28;20414;-72
2023/06/03 08:26:50;;;;;;;;;;;;;;;13.85;59.27;101383.94;5043101;28;19986;-72
2023/06/03 08:29:20;;;;;;;;;;;;;;;13.79;58.91;101384.66;5050913;28;20475;-71
2023/06/03 08:31:47;;;;;;;;;;;;;;;13.76;59.55;101374.16;5041347;28;19924;-71
2023/06/03 08:34:15;;;;;;;;;;;;;;;13.76;59.57;101378.47;5042741;28;19924;-71
2023/06/03 08:36:43;;;;;;;;;;;;;;;13.74;59.87;101381.06;5049440;28;19920;-70
2023/06/03 08:39:15;;;;;;;;;;;;;;;13.67;59.83;101373.91;5049503;28;19932;-71
2023/06/03 08:41:44;;;;;;;;;;;;;;;13.61;61.01;101377.25;5047042;28;19925;-72
2023/06/03 08:44:15;;;;;;;;;;;;;;;13.56;61.45;101375.34;5047751;28;19924;-72
2023/06/03 08:46:48;;;;;;;;;;;;;;;13.48;62.02;101377.75;5049746;28;19924;-72
2023/06/03 08:49:24;;;;;;;;;;;;;;;13.41;62.16;101375.81;5044260;28;20556;-71
2023/06/03 08:51:57;;;;;;;;;;;;;;;13.37;61.57;101379.16;5047413;28;19924;-71
2023/06/03 08:54:29;;;;;;;;;;;;;;;13.30;61.34;101383.31;5049648;28;19978;-71
2023/06/03 08:57:04;;;;;;;;;;;;;;;13.23;61.06;101375.28;5048870;28;19974;-71
2023/06/03 08:59:33;;;;;;;;;;;;;;;13.28;61.01;101390.16;5054041;28;19924;-71
2023/06/03 09:02:01;;;;;;;;;;;;;;;13.25;61.83;101391.78;5044820;28;20537;-71
2023/06/03 09:04:29;;;;;;;;;;;;;;;13.23;62.67;101391.72;5045587;28;19921;-71
2023/06/03 09:06:59;;;;;;;;;;;;;;;13.19;62.35;101400.28;5042868;28;19925;-71
2023/06/03 09:09:29;;;;;;;;;;;;;;;13.14;62.71;101405.34;5040148;28;20632;-71
2023/06/03 09:11:57;;;;;;;;;;;;;;;13.08;62.34;101407.78;5044731;28;19933;-71
2023/06/03 09:14:25;;;;;;;;;;;;;;;13.05;62.51;101407.66;5047621;27;19924;-71
2023/06/03 09:16:54;;;;;;;;;;;;;;;13.01;62.17;101403.22;5043318;28;19950;-71
2023/06/03 09:19:22;;;;;;;;;;;;;;;12.98;62.54;101411.78;5046703;28;20409;-70
2023/06/03 09:21:51;;;;;;;;;;;;;;;12.93;62.52;101407.31;5044415;28;19929;-71
2023/06/03 09:24:19;;;;;;;;;;;;;;;12.90;62.43;101409.81;5046943;28;20861;-71
2023/06/03 09:26:49;;;;;;;;;;;;;;;12.87;62.79;101413.19;5043972;28;19924;-71
2023/06/03 09:29:18;;;;;;;;;;;;;;;12.83;63.21;101416.53;5043937;28;20333;-71
2023/06/03 09:31:46;;;;;;;;;;;;;;;12.78;63.07;101413.81;5039757;28;20615;-71
2023/06/03 09:34:16;;;;;;;;;;;;;;;12.76;62.77;101419.78;5040795;28;19924;-71
2023/06/03 09:36:47;;;;;;;;;;;;;;;12.72;63.49;101413.59;5047256;28;20015;-69
2023/06/03 09:39:17;;;;;;;;;;;;;;;12.67;64.28;101414.31;5039194;28;19955;-70
2023/06/03 09:41:46;;;;;;;;;;;;;;;12.62;64.82;101416.75;5045110;28;19927;-70
2023/06/03 09:44:17;;;;;;;;;;;;;;;12.57;64.95;101411.41;5046986;28;19987;-71
2023/06/03 09:46:50;;;;;;;;;;;;;;;12.53;65.02;101414.75;5039098;28;19935;-70
2023/06/03 09:49:19;;;;;;;;;;;;;;;12.51;65.26;101407.75;5043441;28;19927;-69
2023/06/03 09:51:47;;;;;;;;;;;;;;;12.49;64.75;101412.88;5046762;28;19947;-70
2023/06/03 09:54:16;;;;;;;;;;;;;;;12.45;64.83;101408.41;5042432;28;20493;-70
2023/06/03 09:56:44;;;;;;;;;;;;;;;12.40;64.84;101409.97;5047259;28;19924;-70
2023/06/03 09:59:17;;;;;;;;;;;;;;;12.36;64.63;101414.19;5046448;28;19920;-71
2023/06/03 10:01:47;;;;;;;;;;;;;;;12.34;65.06;101413.25;5041109;28;19994;-71
2023/06/03 10:04:20;;;;;;;;;;;;;;;12.31;65.09;101409.69;5047879;28;19924;-71
2023/06/03 10:06:48;;;;;;;;;;;;;;;12.28;65.09;101410.47;5043771;28;19925;-71
2023/06/03 10:09:20;;;;;;;;;;;;;;;12.26;65.22;101409.53;5042829;28;19924;-71
2023/06/03 10:11:48;;;;;;;;;;;;;;;12.24;64.72;101406.00;5043783;28;19927;-71
2023/06/03 10:14:21;;;;;;;;;;;;;;;12.22;64.72;101399.88;5040886;27;19974;-71
2023/06/03 10:17:03;;;;;;;;;;;;;;;12.20;64.76;101401.53;5044707;28;19925;-71
2023/06/03 10:19:33;;;;;;;;;;;;;;;12.18;64.74;101407.50;5039088;28;20285;-70
2023/06/03 10:22:04;;;;;;;;;;;;;;;12.14;65.18;101409.13;5044521;28;19929;-70
2023/06/03 10:24:32;;;;;;;;;;;;;;;12.05;64.39;101395.81;5042318;28;20023;-71
2023/06/03 10:27:00;;;;;;;;;;;;;;;12.08;64.16;101406.31;5041949;28;19920;-71
2023/06/03 10:29:31;;;;;;;;;;;;;;;12.04;64.81;101409.63;5040084;28;19932;-70
2023/06/03 10:32:07;;;;;;;;;;;;;;;12.01;64.82;101407.81;5040904;28;19982;-70
2023/06/03 10:34:36;;;;;;;;;;;;;;;11.98;64.78;101412.91;5039099;28;19929;-71
2023/06/03 10:37:05;;;;;;;;;;;;;;;11.97;64.74;101418.03;5042585;28;19925;-70
2023/06/03 10:39:33;;;;;;;;;;;;;;;11.94;65.93;101417.09;5044967;28;19990;-70
2023/06/03 10:42:02;;;;;;;;;;;;;;;11.92;65.79;101421.34;5041417;28;19920;-71
2023/06/03 10:44:34;;;;;;;;;;;;;;;11.90;64.38;101419.53;5044812;28;19935;-71
2023/06/03 10:47:04;;;;;;;;;;;;;;;11.88;65.00;101414.28;5043490;28;20015;-71
2023/06/03 10:49:36;;;;;;;;;;;;;;;11.84;65.29;101417.59;5046006;28;19928;-71
2023/06/03 10:52:24;;;;;;;;;;;;;;;11.80;64.95;101420.91;5036784;28;19928;-71
2023/06/03 10:54:56;;;;;;;;;;;;;;;11.75;64.22;101419.88;5010422;28;19925;-71
2023/06/03 10:57:30;;;;;;;;;;;;;;;11.69;64.89;101430.88;5043302;28;20046;-71
2023/06/03 10:59:59;;;;;;;;;;;;;;;11.63;66.23;101427.19;5039307;28;20484;-71
2023/06/03 11:02:27;;;;;;;;;;;;;;;11.63;67.95;101433.25;5044370;28;19970;-71
2023/06/03 11:05:09;;;;;;;;;;;;;;;11.63;69.65;101437.56;5042605;28;20586;-71
2023/06/03 11:07:46;;;;;;;;;;;;;;;11.61;68.88;101434.03;5041052;28;19924;-71
2023/06/03 11:10:32;;;;;;;;;;;;;;;11.60;69.75;101435.75;5048030;28;19925;-71
2023/06/03 11:13:00;;;;;;;;;;;;;;;11.58;68.21;101431.34;5041545;28;20333;-71
2023/06/03 11:15:58;;;;;;;;;;;;;;;11.53;68.86;101432.03;5056633;28;20413;-70
2023/06/03 11:18:26;;;;;;;;;;;;;;;11.49;68.65;101435.34;5064934;28;19920;-70
2023/06/03 11:20:54;;;;;;;;;;;;;;;11.46;67.70;101431.78;5064092;28;19921;-70
2023/06/03 11:23:42;;;;;;;;;;;;;;;11.42;67.15;101427.28;5062131;28;19978;-69
2023/06/03 11:26:28;;;;;;;;;;;;;;;11.38;70.31;101428.88;5058677;28;19935;-69
2023/06/03 11:28:55;;;;;;;;;;;;;;;11.28;68.79;101439.75;5065418;28;19924;-69
2023/06/03 11:31:28;;;;;;;;;;;;;;;11.27;69.35;101443.13;5063812;28;20203;-69
2023/06/03 11:34:14;;;;;;;;;;;;;;;11.26;68.89;101441.38;5062866;28;19924;-71
2023/06/03 11:36:51;;;;;;;;;;;;;;;11.24;68.38;101448.22;5061842;28;19924;-70
2023/06/03 11:39:21;;;;;;;;;;;;;;;11.21;68.57;101445.53;5057259;28;19967;-70
2023/06/03 11:42:11;;;;;;;;;;;;;;;11.16;68.54;101447.94;5058050;28;19924;-70
2023/06/03 11:44:44;;;;;;;;;;;;;;;11.10;69.31;101445.97;5063267;28;19963;-70
2023/06/03 11:47:13;;;;;;;;;;;;;;;11.07;69.37;101445.88;5058095;28;19929;-70
2023/06/03 11:49:41;;;;;;;;;;;;;;;11.03;69.57;101438.81;5063158;28;19964;-70
2023/06/03 11:52:10;;;;;;;;;;;;;;;10.99;69.15;101434.31;5060617;28;19924;-70
2023/06/03 11:54:39;;;;;;;;;;;;;;;10.97;69.49;101437.69;5061631;28;19929;-70
2023/06/03 11:57:10;;;;;;;;;;;;;;;10.96;68.52;101439.41;5063707;28;19931;-70
2023/06/03 11:59:40;;;;;;;;;;;;;;;10.91;69.02;101433.16;5063920;28;19924;-71
2023/06/03 12:02:08;;;;;;;;;;;;;;;10.86;69.51;101443.34;5065470;28;19920;-70
2023/06/03 12:04:37;;;;;;;;;;;;;;;10.85;70.02;101448.44;5063579;28;20382;-70
2023/06/03 12:07:11;;;;;;;;;;;;;;;10.83;69.14;101450.09;5069847;28;20354;-70
2023/06/03 12:09:39;;;;;;;;;;;;;;;10.79;69.84;101448.19;5069875;28;20402;-70
2023/06/03 12:12:07;;;;;;;;;;;;;;;10.79;70.59;101448.19;5067247;28;19920;-71
2023/06/03 12:14:38;;;;;;;;;;;;;;;10.76;70.05;101451.53;5066556;28;19920;-71
2023/06/03 12:17:11;;;;;;;;;;;;;;;10.75;70.23;101456.69;5062272;28;19936;-71
2023/06/03 12:19:41;;;;;;;;;;;;;;;10.71;70.65;101454.78;5066956;28;19936;-71
2023/06/03 12:22:10;;;;;;;;;;;;;;;10.69;70.71;101457.31;5066872;28;20382;-71
2023/06/03 12:24:40;;;;;;;;;;;;;;;10.66;70.96;101458.06;5066171;28;20378;-71
2023/06/03 12:27:17;;;;;;;;;;;;;;;10.64;70.76;101451.94;5064488;28;19921;-71
2023/06/03 12:29:46;;;;;;;;;;;;;;;10.62;71.19;101457.88;5063048;28;19924;-71
2023/06/03 12:32:14;;;;;;;;;;;;;;;10.60;71.43;101457.81;5064882;28;19929;-71
2023/06/03 12:34:43;;;;;;;;;;;;;;;10.59;70.72;101457.78;5057959;28;19924;-70
2023/06/03 12:37:16;;;;;;;;;;;;;;;10.55;71.13;101459.34;5063563;28;19924;-70
2023/06/03 12:39:49;;;;;;;;;;;;;;;10.52;71.17;101468.69;5065832;28;19928;-70
2023/06/03 12:42:17;;;;;;;;;;;;;;;10.48;70.96;101460.78;5067777;28;20038;-71
2023/06/03 12:44:46;;;;;;;;;;;;;;;10.45;69.74;101462.38;5065184;28;20021;-71
2023/06/03 12:47:14;;;;;;;;;;;;;;;10.42;70.86;101467.41;5060077;28;20067;-70
2023/06/03 12:49:44;;;;;;;;;;;;;;;10.31;71.79;101453.13;5060857;28;20374;-71